createdAt,value
2018-06-20T00:01:24.135Z,15.60
2018-06-20T00:03:52.277Z,15.60
2018-06-20T00:08:52.940Z,15.60
2018-06-20T00:11:23.861Z,15.60
2018-06-20T00:13:52.759Z,15.50
2018-06-20T00:18:49.116Z,15.40
2018-06-20T00:21:17.260Z,15.30
2018-06-20T00:23:45.424Z,15.30
2018-06-20T00:26:13.735Z,15.30
2018-06-20T00:31:10.191Z,15.30
2018-06-20T00:36:06.365Z,15.30
2018-06-20T00:38:34.500Z,15.30
2018-06-20T00:43:30.576Z,15.30
2018-06-20T00:45:58.741Z,15.30
2018-06-20T00:48:26.925Z,15.30
2018-06-20T00:50:55.098Z,15.30
2018-06-20T00:53:23.243Z,15.20
2018-06-20T00:56:02.784Z,15.20
2018-06-20T00:58:30.927Z,15.10
2018-06-20T01:00:59.085Z,15.10
2018-06-20T01:03:27.806Z,15.10
2018-06-20T01:05:55.957Z,15.00
2018-06-20T01:08:24.107Z,14.90
2018-06-20T01:10:52.260Z,14.90
2018-06-20T01:13:20.408Z,14.90
2018-06-20T01:15:48.560Z,14.90
2018-06-20T01:18:16.697Z,14.90
2018-06-20T01:20:44.844Z,14.90
2018-06-20T01:25:40.909Z,14.90
2018-06-20T01:28:09.085Z,14.80
2018-06-20T01:30:37.224Z,14.70
2018-06-20T01:33:05.381Z,14.70
2018-06-20T01:35:33.524Z,14.60
2018-06-20T01:38:01.675Z,14.60
2018-06-20T01:40:29.824Z,14.60
2018-06-20T01:42:57.976Z,14.60
2018-06-20T01:45:26.120Z,14.50
2018-06-20T01:47:54.273Z,14.50
2018-06-20T01:50:25.907Z,14.50
2018-06-20T01:55:22.164Z,14.40
2018-06-20T02:00:18.287Z,14.30
2018-06-20T02:02:46.441Z,14.30
2018-06-20T02:05:14.597Z,14.30
2018-06-20T02:07:42.755Z,14.20
2018-06-20T02:10:10.893Z,14.20
2018-06-20T02:12:39.046Z,14.20
2018-06-20T02:15:07.312Z,14.20
2018-06-20T02:17:35.465Z,14.20
2018-06-20T02:20:03.629Z,14.10
2018-06-20T02:22:31.778Z,14.10
2018-06-20T02:27:27.869Z,14.10
2018-06-20T02:29:56.012Z,14.10
2018-06-20T02:32:24.156Z,14.10
2018-06-20T02:34:52.378Z,14.10
2018-06-20T02:37:20.527Z,14.10
2018-06-20T02:39:48.893Z,14.00
2018-06-20T02:44:45.455Z,13.90
2018-06-20T02:49:42.205Z,13.90
2018-06-20T02:54:38.593Z,14.00
2018-06-20T02:57:06.788Z,14.00
2018-06-20T02:59:34.943Z,14.00
2018-06-20T03:02:03.088Z,14.10
2018-06-20T03:04:31.239Z,14.00
2018-06-20T03:06:59.408Z,14.00
2018-06-20T03:09:30.879Z,14.00
2018-06-20T03:11:59.680Z,14.00
2018-06-20T03:16:56.461Z,13.90
2018-06-20T03:19:25.742Z,13.90
2018-06-20T03:24:21.800Z,13.90
2018-06-20T03:26:50.053Z,13.90
2018-06-20T03:31:46.309Z,14.00
2018-06-20T03:34:14.464Z,14.10
2018-06-20T03:36:42.617Z,14.10
2018-06-20T03:39:11.129Z,14.10
2018-06-20T03:41:39.619Z,14.10
2018-06-20T03:46:35.972Z,14.20
2018-06-20T03:51:32.145Z,14.30
2018-06-20T03:54:00.501Z,14.30
2018-06-20T03:56:28.666Z,14.40
2018-06-20T04:01:25.580Z,14.50
2018-06-20T04:03:53.909Z,14.50
2018-06-20T04:08:49.969Z,14.50
2018-06-20T04:11:18.121Z,14.60
2018-06-20T04:16:14.896Z,14.70
2018-06-20T04:18:43.972Z,14.70
2018-06-20T04:21:13.480Z,14.80
2018-06-20T04:26:10.552Z,14.90
2018-06-20T04:31:07.621Z,15.10
2018-06-20T04:36:04.881Z,15.40
2018-06-20T04:38:33.041Z,15.50
2018-06-20T04:41:01.689Z,15.60
2018-06-20T04:43:29.858Z,15.60
2018-06-20T04:45:57.998Z,15.70
2018-06-20T04:50:54.548Z,15.80
2018-06-20T04:55:50.612Z,16.00
2018-06-20T04:58:18.774Z,16.00
2018-06-20T05:00:46.922Z,16.10
2018-06-20T05:03:15.224Z,16.20
2018-06-20T05:08:11.564Z,16.40
2018-06-20T05:10:39.948Z,16.50
2018-06-20T05:15:36.201Z,16.70
2018-06-20T05:20:32.465Z,17.00
2018-06-20T05:23:00.608Z,17.10
2018-06-20T05:25:28.766Z,17.20
2018-06-20T05:27:56.909Z,17.30
2018-06-20T05:30:25.052Z,17.50
2018-06-20T05:35:21.675Z,18.00
2018-06-20T05:37:49.825Z,18.70
2018-06-20T05:40:18.256Z,20.40
2018-06-20T05:45:14.344Z,24.40
2018-06-20T05:47:42.490Z,26.00
2018-06-20T05:50:10.641Z,27.00
2018-06-20T05:52:38.781Z,27.80
2018-06-20T05:55:07.300Z,28.60
2018-06-20T06:00:03.386Z,28.90
2018-06-20T06:02:31.728Z,28.80
2018-06-20T06:07:27.781Z,28.40
2018-06-20T06:09:55.916Z,27.90
2018-06-20T06:12:24.061Z,27.50
2018-06-20T06:14:52.216Z,27.00
2018-06-20T06:17:20.364Z,26.20
2018-06-20T06:22:16.664Z,24.90
2018-06-20T06:24:44.813Z,24.50
2018-06-20T06:27:12.964Z,24.00
2018-06-20T06:29:41.125Z,23.70
2018-06-20T06:32:10.093Z,23.40
2018-06-20T06:34:38.239Z,23.20
2018-06-20T06:37:06.389Z,23.00
2018-06-20T06:39:34.533Z,22.90
2018-06-20T06:42:02.687Z,22.80
2018-06-20T06:44:30.996Z,22.80
2018-06-20T06:46:59.149Z,22.70
2018-06-20T06:49:27.350Z,22.70
2018-06-20T06:51:55.461Z,22.70
2018-06-20T06:54:23.613Z,22.70
2018-06-20T06:56:51.757Z,22.70
2018-06-20T06:59:19.927Z,22.70
2018-06-20T07:01:48.084Z,22.60
2018-06-20T07:04:16.225Z,22.60
2018-06-20T07:06:44.385Z,22.60
2018-06-20T07:09:12.539Z,22.60
2018-06-20T07:11:40.688Z,22.70
2018-06-20T07:14:08.857Z,22.80
2018-06-20T07:16:36.995Z,22.90
2018-06-20T07:19:05.146Z,23.00
2018-06-20T07:24:01.224Z,23.20
2018-06-20T07:26:29.376Z,23.20
2018-06-20T07:28:57.524Z,23.30
2018-06-20T07:31:25.669Z,23.40
2018-06-20T07:33:54.133Z,23.40
2018-06-20T07:36:22.363Z,23.50
2018-06-20T07:38:50.428Z,23.50
2018-06-20T07:41:18.576Z,23.50
2018-06-20T07:43:47.398Z,23.70
2018-06-20T07:48:43.481Z,23.80
2018-06-20T07:51:11.637Z,23.90
2018-06-20T07:53:39.787Z,23.90
2018-06-20T07:56:07.924Z,24.00
2018-06-20T07:58:41.630Z,24.10
2018-06-20T08:01:15.979Z,24.20
2018-06-20T08:06:23.159Z,24.40
2018-06-20T08:08:57.531Z,24.50
2018-06-20T08:11:31.245Z,24.60
2018-06-20T08:14:04.676Z,24.60
2018-06-20T08:16:38.233Z,24.70
2018-06-20T08:19:12.457Z,24.90
2018-06-20T08:21:40.625Z,25.00
2018-06-20T08:24:08.794Z,25.10
2018-06-20T08:26:36.996Z,25.10
2018-06-20T08:29:05.140Z,25.20
2018-06-20T08:34:01.201Z,25.30
2018-06-20T08:36:29.348Z,25.20
2018-06-20T08:41:25.420Z,25.20
2018-06-20T08:43:53.560Z,25.20
2018-06-20T08:48:49.682Z,25.20
2018-06-20T08:51:17.821Z,25.40
2018-06-20T08:53:45.967Z,25.50
2018-06-20T08:58:42.348Z,25.70
2018-06-20T09:01:10.485Z,25.60
2018-06-20T09:06:11.873Z,25.80
2018-06-20T09:08:45.628Z,25.90
2018-06-20T09:11:19.056Z,25.80
2018-06-20T09:16:26.816Z,25.80
2018-06-20T09:19:59.361Z,25.90
2018-06-20T09:22:27.512Z,26.00
2018-06-20T09:24:55.655Z,26.30
2018-06-20T09:27:23.810Z,26.30
2018-06-20T09:29:51.968Z,26.20
2018-06-20T09:32:20.125Z,26.30
2018-06-20T09:37:16.211Z,26.70
2018-06-20T09:39:44.535Z,26.70
2018-06-20T09:42:12.637Z,26.80
2018-06-20T09:47:09.112Z,26.90
2018-06-20T09:49:37.576Z,26.90
2018-06-20T09:52:05.712Z,26.90
2018-06-20T09:54:33.877Z,26.90
2018-06-20T09:57:02.024Z,26.90
2018-06-20T09:59:35.617Z,27.10
2018-06-20T10:02:09.068Z,27.00
2018-06-20T10:04:42.925Z,27.00
2018-06-20T10:07:18.953Z,26.90
2018-06-20T10:12:29.592Z,26.80
2018-06-20T10:14:57.745Z,26.80
2018-06-20T10:17:26.817Z,26.90
2018-06-20T10:19:54.974Z,26.90
2018-06-20T10:22:23.114Z,27.10
2018-06-20T10:24:51.252Z,27.10
2018-06-20T10:27:19.419Z,27.20
2018-06-20T10:29:47.565Z,27.30
2018-06-20T10:32:15.705Z,27.30
2018-06-20T10:34:44.873Z,27.00
2018-06-20T10:37:13.029Z,27.00
2018-06-20T10:42:09.201Z,27.00
2018-06-20T10:44:37.343Z,27.20
2018-06-20T10:49:39.664Z,27.30
2018-06-20T10:52:07.812Z,27.10
2018-06-20T10:57:09.673Z,27.40
2018-06-20T10:59:43.101Z,27.50
2018-06-20T11:02:16.655Z,27.60
2018-06-20T11:04:50.192Z,27.50
2018-06-20T11:08:28.043Z,27.60
2018-06-20T11:11:01.708Z,27.70
2018-06-20T11:13:29.864Z,27.70
2018-06-20T11:15:58.005Z,27.70
2018-06-20T11:18:26.152Z,27.70
2018-06-20T11:20:56.448Z,27.70
2018-06-20T11:23:24.820Z,27.70
2018-06-20T11:28:21.518Z,27.80
2018-06-20T11:30:49.685Z,27.80
2018-06-20T11:33:17.845Z,27.60
2018-06-20T11:38:13.916Z,27.70
2018-06-20T11:40:42.062Z,27.80
2018-06-20T11:43:10.213Z,27.70
2018-06-20T11:45:43.808Z,27.60
2018-06-20T11:48:11.957Z,27.70
2018-06-20T11:50:40.133Z,27.80
2018-06-20T11:53:09.580Z,27.90
2018-06-20T11:55:39.912Z,27.90
2018-06-20T12:00:49.660Z,28.10
2018-06-20T12:03:23.273Z,28.00
2018-06-20T12:08:30.368Z,27.80
2018-06-20T12:13:37.466Z,27.80
2018-06-20T12:16:45.056Z,27.80
2018-06-20T12:19:18.547Z,27.80
2018-06-20T12:21:52.108Z,27.80
2018-06-20T12:24:25.836Z,27.80
2018-06-20T12:26:59.384Z,27.90
2018-06-20T12:29:32.949Z,28.00
2018-06-20T12:32:06.624Z,28.00
2018-06-20T12:34:40.285Z,28.00
2018-06-20T12:37:14.008Z,28.00
2018-06-20T12:39:41.432Z,28.00
2018-06-20T12:42:15.190Z,28.00
2018-06-20T12:44:48.536Z,28.00
2018-06-20T12:47:22.672Z,28.00
2018-06-20T12:49:55.033Z,27.90
2018-06-20T12:57:20.025Z,27.90
2018-06-20T12:59:48.285Z,27.90
2018-06-20T13:02:16.436Z,28.20
2018-06-20T13:04:44.592Z,28.10
2018-06-20T13:07:12.984Z,28.10
2018-06-20T13:12:09.097Z,28.20
2018-06-20T13:14:37.257Z,28.20
2018-06-20T13:17:05.589Z,28.10
2018-06-20T13:19:33.733Z,28.20
2018-06-20T13:22:01.885Z,28.20
2018-06-20T13:24:30.029Z,28.20
2018-06-20T13:26:58.188Z,28.10
2018-06-20T13:29:26.328Z,28.00
2018-06-20T13:31:59.776Z,27.90
2018-06-20T13:34:33.503Z,27.90
2018-06-20T13:37:07.231Z,28.00
2018-06-20T13:39:41.055Z,27.90
2018-06-20T13:42:13.402Z,27.90
2018-06-20T13:44:42.369Z,27.90
2018-06-20T13:47:15.971Z,27.90
2018-06-20T13:49:44.196Z,27.80
2018-06-20T13:52:12.402Z,27.80
2018-06-20T13:54:41.253Z,27.80
2018-06-20T13:57:09.427Z,27.90
2018-06-20T13:59:37.568Z,27.90
2018-06-20T14:02:05.733Z,27.90
2018-06-20T14:04:33.884Z,28.00
2018-06-20T14:07:02.077Z,27.90
2018-06-20T14:09:30.332Z,27.90
2018-06-20T14:14:26.408Z,27.80
2018-06-20T14:16:54.577Z,27.70
2018-06-20T14:20:25.979Z,27.70
2018-06-20T14:22:54.213Z,27.70
2018-06-20T14:25:22.344Z,27.50
2018-06-20T14:27:50.496Z,27.50
2018-06-20T14:30:24.220Z,27.60
2018-06-20T14:32:57.974Z,27.50
2018-06-20T14:35:31.669Z,27.50
2018-06-20T14:38:05.360Z,27.50
2018-06-20T14:40:38.826Z,27.40
2018-06-20T14:43:13.204Z,27.30
2018-06-20T14:45:46.920Z,27.30
2018-06-20T14:48:15.073Z,27.30
2018-06-20T14:50:43.219Z,27.30
2018-06-20T14:53:12.478Z,27.30
2018-06-20T14:55:40.915Z,27.30
2018-06-20T14:58:09.065Z,27.20
2018-06-20T15:03:19.574Z,27.00
2018-06-20T15:05:47.720Z,27.10
2018-06-20T15:08:15.877Z,27.00
2018-06-20T15:10:45.878Z,26.90
2018-06-20T15:13:14.982Z,26.90
2018-06-20T15:15:43.929Z,26.90
2018-06-20T15:18:12.274Z,26.80
2018-06-20T15:20:40.534Z,26.80
2018-06-20T15:23:08.720Z,26.90
2018-06-20T15:25:36.869Z,26.80
2018-06-20T15:28:10.412Z,26.80
2018-06-20T15:30:44.073Z,26.80
2018-06-20T15:33:18.457Z,26.70
2018-06-20T15:35:52.201Z,26.70
2018-06-20T15:41:25.035Z,26.70
2018-06-20T15:43:53.184Z,26.60
2018-06-20T15:46:21.353Z,26.60
2018-06-20T15:49:01.029Z,26.60
2018-06-20T15:51:30.577Z,26.50
2018-06-20T15:53:58.820Z,26.70
2018-06-20T15:56:27.033Z,26.60
2018-06-20T15:58:55.240Z,26.70
2018-06-20T16:01:24.644Z,26.70
2018-06-20T16:03:52.924Z,26.80
2018-06-20T16:06:21.084Z,26.90
2018-06-20T16:08:54.785Z,27.00
2018-06-20T16:11:23.004Z,27.10
2018-06-20T16:13:51.201Z,27.10
2018-06-20T16:16:19.940Z,27.10
2018-06-20T16:18:53.709Z,27.20
2018-06-20T16:21:27.385Z,27.40
2018-06-20T16:24:00.996Z,27.40
2018-06-20T16:26:34.748Z,27.40
2018-06-20T16:30:10.925Z,27.60
2018-06-20T16:32:39.093Z,27.80
2018-06-20T16:35:07.255Z,28.10
2018-06-20T16:37:35.471Z,28.40
2018-06-20T16:40:04.463Z,28.40
2018-06-20T16:42:32.659Z,28.40
2018-06-20T16:45:00.864Z,28.50
2018-06-20T16:47:29.041Z,28.40
2018-06-20T16:49:57.263Z,28.30
2018-06-20T16:52:25.424Z,28.00
2018-06-20T16:54:53.593Z,27.50
2018-06-20T16:57:21.786Z,27.20
2018-06-20T16:59:50.133Z,27.00
2018-06-20T17:02:23.841Z,26.80
2018-06-20T17:04:51.988Z,26.60
2018-06-20T17:07:20.164Z,26.40
2018-06-20T17:09:48.984Z,26.10
2018-06-20T17:12:22.672Z,26.00
2018-06-20T17:14:56.391Z,26.00
2018-06-20T17:17:30.025Z,25.90
2018-06-20T17:20:03.572Z,25.80
2018-06-20T17:22:37.217Z,25.70
2018-06-20T17:25:10.879Z,25.70
2018-06-20T17:27:39.049Z,25.60
2018-06-20T17:30:07.850Z,25.50
2018-06-20T17:32:36.041Z,25.40
2018-06-20T17:35:04.400Z,25.30
2018-06-20T17:37:32.897Z,25.30
2018-06-20T17:40:01.072Z,25.20
2018-06-20T17:42:29.998Z,25.20
2018-06-20T17:44:58.164Z,25.10
2018-06-20T17:47:26.338Z,25.10
2018-06-20T17:49:54.570Z,25.00
2018-06-20T17:52:22.737Z,25.10
2018-06-20T17:54:50.926Z,25.00
2018-06-20T17:57:19.104Z,25.00
2018-06-20T17:59:47.253Z,24.90
2018-06-20T18:02:15.441Z,24.90
2018-06-20T18:04:49.151Z,24.90
2018-06-20T18:07:22.847Z,24.80
2018-06-20T18:09:56.476Z,24.70
2018-06-20T18:12:30.317Z,24.70
2018-06-20T18:15:04.144Z,24.70
2018-06-20T18:17:32.293Z,24.60
2018-06-20T18:20:00.492Z,24.60
2018-06-20T18:22:29.521Z,24.50
2018-06-20T18:24:57.673Z,24.40
2018-06-20T18:27:25.895Z,24.40
2018-06-20T18:29:54.084Z,24.30
2018-06-20T18:32:22.264Z,24.30
2018-06-20T18:34:50.560Z,24.30
2018-06-20T18:37:18.725Z,24.20
2018-06-20T18:39:52.341Z,24.10
2018-06-20T18:42:20.504Z,24.00
2018-06-20T18:44:48.660Z,23.90
2018-06-20T18:47:22.397Z,23.90
2018-06-20T18:49:50.551Z,23.80
2018-06-20T18:52:18.756Z,23.70
2018-06-20T18:54:46.947Z,23.60
2018-06-20T18:59:53.995Z,23.40
2018-06-20T19:02:27.658Z,23.30
2018-06-20T19:05:01.340Z,23.20
2018-06-20T19:07:34.997Z,23.10
2018-06-20T19:10:03.175Z,23.00
2018-06-20T19:12:31.869Z,22.90
2018-06-20T19:15:00.073Z,22.80
2018-06-20T19:17:28.273Z,22.70
2018-06-20T19:19:56.523Z,22.70
2018-06-20T19:22:24.659Z,22.60
2018-06-20T19:24:52.804Z,22.50
2018-06-20T19:27:20.989Z,22.40
2018-06-20T19:29:49.158Z,22.30
2018-06-20T19:32:17.386Z,22.20
2018-06-20T19:34:45.488Z,22.10
2018-06-20T19:37:13.716Z,22.00
2018-06-20T19:39:47.203Z,21.90
2018-06-20T19:42:15.377Z,21.90
2018-06-20T19:44:43.627Z,21.80
2018-06-20T19:47:11.769Z,21.70
2018-06-20T19:49:40.172Z,21.60
2018-06-20T19:52:08.339Z,21.50
2018-06-20T19:54:36.500Z,21.40
2018-06-20T19:57:04.707Z,21.30
2018-06-20T19:59:32.868Z,21.20
2018-06-20T20:02:01.042Z,21.00
2018-06-20T20:04:29.205Z,21.00
2018-06-20T20:06:57.409Z,20.90
2018-06-20T20:09:25.605Z,20.80
2018-06-20T20:14:21.873Z,20.60
2018-06-20T20:16:50.057Z,20.60
2018-06-20T20:19:18.221Z,20.50
2018-06-20T20:21:46.638Z,20.40
2018-06-20T20:24:14.792Z,20.40
2018-06-20T20:26:43.125Z,20.30
2018-06-20T20:29:11.704Z,20.20
2018-06-20T20:31:39.852Z,20.10
2018-06-20T20:34:08.081Z,20.00
2018-06-20T20:36:36.213Z,20.00
2018-06-20T20:39:07.050Z,19.80
2018-06-20T20:41:35.271Z,19.80
2018-06-20T20:44:03.430Z,19.70
2018-06-20T20:46:31.620Z,19.50
2018-06-20T20:51:27.691Z,19.30
2018-06-20T20:53:55.829Z,19.20
2018-06-20T20:56:24.004Z,19.10
2018-06-20T20:58:52.164Z,19.10
2018-06-20T21:01:20.328Z,19.10
2018-06-20T21:03:48.473Z,18.90
2018-06-20T21:06:16.645Z,18.90
2018-06-20T21:08:44.805Z,18.80
2018-06-20T21:11:15.195Z,18.80
2018-06-20T21:16:11.983Z,18.70
2018-06-20T21:18:40.148Z,18.70
2018-06-20T21:21:08.300Z,18.60
2018-06-20T21:23:36.581Z,18.50
2018-06-20T21:26:04.792Z,18.40
2018-06-20T21:28:32.976Z,18.40
2018-06-20T21:31:01.308Z,18.30
2018-06-20T21:33:29.476Z,18.20
2018-06-20T21:35:57.672Z,18.10
2018-06-20T21:38:25.809Z,18.10
2018-06-20T21:40:53.948Z,18.10
2018-06-20T21:43:22.117Z,18.10
2018-06-20T21:45:50.260Z,18.10
2018-06-20T21:48:18.412Z,18.00
2018-06-20T21:50:46.579Z,18.00
2018-06-20T21:53:14.737Z,17.90
2018-06-20T21:55:42.876Z,17.80
2018-06-20T21:58:11.048Z,17.80
2018-06-20T22:00:39.212Z,17.70
2018-06-20T22:03:07.401Z,17.60
2018-06-20T22:05:35.528Z,17.60
2018-06-20T22:08:03.683Z,17.50
2018-06-20T22:10:31.893Z,17.50
2018-06-20T22:15:27.972Z,17.40
2018-06-20T22:17:56.148Z,17.40
2018-06-20T22:20:24.316Z,17.30
2018-06-20T22:22:52.460Z,17.30
2018-06-20T22:25:20.628Z,17.20
2018-06-20T22:27:48.772Z,17.10
2018-06-20T22:30:16.920Z,17.10
2018-06-20T22:32:45.068Z,17.00
2018-06-20T22:35:13.238Z,17.00
2018-06-20T22:37:41.392Z,16.90
2018-06-20T22:40:09.680Z,16.90
2018-06-20T22:42:38.189Z,16.90
2018-06-20T22:45:06.332Z,16.80
2018-06-20T22:47:34.515Z,16.80
2018-06-20T22:52:30.597Z,16.70
2018-06-20T22:54:58.868Z,16.70
2018-06-20T22:57:27.028Z,16.70
2018-06-20T22:59:55.236Z,16.70
2018-06-20T23:02:23.489Z,16.70
2018-06-20T23:04:51.663Z,16.70
2018-06-20T23:07:19.797Z,16.60
